»·PEaware :: UAL805 KEGE-KDEN

UAL805 :: KEGE-KDEN

FLIGHT INFORMATION

Flight Status: Arrived
Operator:
United Airlines
More flights by this operator :: More flights under this callsign
Pilot: Patricio R. (14780)
Aircraft: AIRBUS A320
(A320)
More flights by this aircraft type
Origin: KEGE Eagle Co Regl
United States
Destination: KDEN Denver Intl
United States
More flights between these airports :: More routes between these airports
Route: +GYPSM6 RLG FRNCH FRNCH3
File this flight plan on PilotEdge
Remarks: PBN / A1B1C1D1O1S1 DOF / 180905 REG / FFA320 OPR / UAL PER / C RMK / TCAS SIMBRIEF
Altitude:
(Current/Filed)
23,000ft
Speed:
(Current/Filed)
444kts
Departed: 04-Sep-18 05:54 PM
Arrived: 04-Sep-18 06:29 PM
Distance/Time
Traveled:
105nm/0:35
Distance/Time
To Go:
Arrived

Flight Plot

Page will automatically refresh every two minutes.

Flight plan parsing failed; only flown route is shown


Map Options




Map Legend


Flown Route
Filed Route
Departure Airport
Arrival Airport
Navaid (VOR, NDB)
Fix

Horizontal Profiles

Position Reports

Time Latitude Longitude Heading Altitude Ground
Speed
04-Sep-18 17:39 39.641019 -106.910332 171 6554ft 0kts
04-Sep-18 17:40 39.641019 -106.910332 171 6554ft 0kts
04-Sep-18 17:42 39.641019 -106.910332 171 6554ft 0kts
04-Sep-18 17:43 39.641019 -106.910332 171 6554ft 0kts
04-Sep-18 17:44 39.641019 -106.910332 171 6554ft 0kts
04-Sep-18 17:45 39.641019 -106.910332 171 6554ft 0kts
04-Sep-18 17:46 39.641019 -106.910332 171 6554ft 0kts
04-Sep-18 17:47 39.641019 -106.910332 171 6554ft 0kts
04-Sep-18 17:48 39.641019 -106.910332 171 6554ft 0kts
04-Sep-18 17:49 39.641239 -106.910372 172 6554ft 2kts
04-Sep-18 17:50 39.641535 -106.910724 75 6554ft 1kts
04-Sep-18 17:51 39.641528 -106.910773 81 6554ft 0kts
04-Sep-18 17:52 39.641566 -106.910426 81 6554ft 11kts
04-Sep-18 17:53 39.642513 -106.907665 81 6554ft 14kts
04-Sep-18 17:54 39.643091 -106.902369 81 6554ft 12kts
04-Sep-18 17:55 39.644428 -106.900855 263 6554ft 11kts
04-Sep-18 17:56 39.639565 -106.944597 260 7195ft 191kts
04-Sep-18 17:57 39.609061 -107.006494 254 9486ft 233kts
04-Sep-18 17:58 39.640294 -107.081091 346 11406ft 292kts
04-Sep-18 17:59 39.722675 -107.075023 3 14554ft 305kts
04-Sep-18 18:00 39.791151 -107.016847 60 17324ft 336kts
04-Sep-18 18:01 39.831297 -106.908635 67 20640ft 325kts
04-Sep-18 18:02 39.872588 -106.796878 67 22260ft 363kts
04-Sep-18 18:03 39.917847 -106.673922 67 23201ft 405kts
04-Sep-18 18:04 39.969924 -106.531686 66 23205ft 461kts
04-Sep-18 18:05 40.049663 -106.394538 39 23301ft 495kts
04-Sep-18 18:06 40.157871 -106.285288 39 23349ft 495kts
04-Sep-18 18:07 40.265204 -106.176076 39 23345ft 495kts
04-Sep-18 18:08 40.370863 -106.062487 50 23371ft 492kts
04-Sep-18 18:09 40.422573 -105.902886 88 23364ft 477kts
04-Sep-18 18:10 40.404040 -105.733404 104 23363ft 471kts
04-Sep-18 18:11 40.378473 -105.572065 104 22639ft 425kts
04-Sep-18 18:12 40.351773 -105.431383 124 21826ft 369kts
04-Sep-18 18:13 40.291494 -105.334248 132 20943ft 328kts
04-Sep-18 18:14 40.234154 -105.244368 131 19284ft 319kts
04-Sep-18 18:15 40.178037 -105.156631 131 17616ft 311kts
04-Sep-18 18:16 40.123324 -105.071199 130 16012ft 303kts
04-Sep-18 18:17 40.069643 -104.987614 128 14839ft 301kts
04-Sep-18 18:18 40.016027 -104.904369 127 13915ft 293kts
04-Sep-18 18:19 39.966880 -104.828112 126 13327ft 258kts
04-Sep-18 18:20 39.899993 -104.806032 178 12140ft 266kts
04-Sep-18 18:21 39.827290 -104.807995 178 11049ft 262kts
04-Sep-18 18:22 39.754856 -104.809879 178 9908ft 259kts
04-Sep-18 18:23 39.683411 -104.811711 179 8841ft 256kts
04-Sep-18 18:24 39.628430 -104.777349 94 7972ft 226kts
04-Sep-18 18:25 39.645231 -104.712181 58 7375ft 174kts
04-Sep-18 18:26 39.678525 -104.669518 16 6718ft 172kts
04-Sep-18 18:27 39.725080 -104.661094 358 6167ft 171kts
04-Sep-18 18:28 39.771408 -104.661261 2 6080ft 152kts
04-Sep-18 18:29 39.813317 -104.660687 3 5688ft 149kts
04-Sep-18 18:30 39.846790 -104.660295 0 5443ft 61kts
04-Sep-18 18:31 39.859252 -104.660148 1 5443ft 20kts
04-Sep-18 18:32 39.860140 -104.661661 270 5443ft 0kts

Navigation Log

Ident Type
Flight plan parsing failed, navigation log unavailable